createdAt,value
2023-02-25T00:01:13.269Z,3.40
2023-02-25T00:03:40.855Z,3.63
2023-02-25T00:06:16.147Z,3.20
2023-02-25T00:08:45.416Z,3.30
2023-02-25T00:11:13.537Z,3.50
2023-02-25T00:13:42.444Z,3.70
2023-02-25T00:16:10.450Z,4.03
2023-02-25T00:18:40.744Z,3.50
2023-02-25T00:21:09.653Z,3.77
2023-02-25T00:23:37.104Z,3.40
2023-02-25T00:26:06.767Z,3.73
2023-02-25T00:28:34.494Z,4.00
2023-02-25T00:31:05.547Z,4.30
2023-02-25T00:33:32.294Z,3.57
2023-02-25T00:35:59.393Z,4.00
2023-02-25T00:38:27.860Z,4.00
2023-02-25T00:40:54.498Z,3.73
2023-02-25T00:43:22.063Z,3.70
2023-02-25T00:45:48.777Z,4.00
2023-02-25T00:48:15.474Z,4.70
2023-02-25T00:50:42.131Z,3.57
2023-02-25T00:53:08.807Z,4.17
2023-02-25T00:55:36.269Z,3.67
2023-02-25T00:58:03.526Z,3.37
2023-02-25T01:00:35.923Z,3.73
2023-02-25T01:03:07.824Z,3.43
2023-02-25T01:05:34.927Z,3.10
2023-02-25T01:08:02.135Z,3.53
2023-02-25T01:10:29.208Z,3.90
2023-02-25T01:12:56.340Z,3.10
2023-02-25T01:15:23.013Z,3.40
2023-02-25T01:17:50.067Z,3.53
2023-02-25T01:20:22.388Z,3.37
2023-02-25T01:22:49.040Z,2.77
2023-02-25T01:25:17.607Z,3.60
2023-02-25T01:27:44.432Z,3.27
2023-02-25T01:30:12.168Z,2.97
2023-02-25T01:32:39.422Z,3.07
2023-02-25T01:35:06.682Z,3.60
2023-02-25T01:37:33.799Z,3.47
2023-02-25T01:40:01.167Z,3.10
2023-02-25T01:42:28.316Z,3.03
2023-02-25T01:45:29.346Z,2.90
2023-02-25T01:48:19.414Z,3.10
2023-02-25T01:50:56.490Z,2.87
2023-02-25T01:53:28.111Z,2.63
2023-02-25T01:55:57.687Z,2.87
2023-02-25T01:58:26.853Z,3.03
2023-02-25T02:00:55.465Z,3.10
2023-02-25T02:03:34.283Z,3.00
2023-02-25T02:06:15.358Z,2.77
2023-02-25T02:08:45.480Z,2.60
2023-02-25T02:11:12.132Z,3.60
2023-02-25T02:13:43.603Z,3.93
2023-02-25T02:16:25.771Z,3.40
2023-02-25T02:19:22.301Z,2.57
2023-02-25T02:21:52.025Z,3.00
2023-02-25T02:24:40.301Z,3.03
2023-02-25T02:27:14.460Z,2.97
2023-02-25T02:30:05.227Z,3.00
2023-02-25T02:32:50.561Z,3.00
2023-02-25T02:35:32.596Z,2.90
2023-02-25T02:38:12.823Z,2.77
2023-02-25T02:40:58.088Z,2.93
2023-02-25T02:43:40.248Z,3.13
2023-02-25T02:46:10.707Z,3.20
2023-02-25T02:49:03.057Z,2.53
2023-02-25T02:51:35.319Z,2.60
2023-02-25T02:54:05.935Z,2.87
2023-02-25T02:56:35.800Z,2.90
2023-02-25T02:59:15.121Z,2.73
2023-02-25T03:01:47.537Z,2.97
2023-02-25T03:04:20.005Z,2.90
2023-02-25T03:06:50.495Z,3.27
2023-02-25T03:09:27.499Z,3.17
2023-02-25T03:11:54.203Z,3.00
2023-02-25T03:14:20.870Z,3.30
2023-02-25T03:17:32.033Z,2.83
2023-02-25T03:20:22.210Z,2.90
2023-02-25T03:22:51.685Z,3.17
2023-02-25T03:25:32.762Z,2.70
2023-02-25T03:28:04.627Z,3.33
2023-02-25T03:30:39.146Z,3.27
2023-02-25T03:33:08.832Z,3.50
2023-02-25T03:35:37.455Z,3.40
2023-02-25T03:38:20.783Z,3.40
2023-02-25T03:40:49.823Z,3.40
2023-02-25T03:43:22.534Z,2.93
2023-02-25T03:45:49.421Z,3.57
2023-02-25T03:48:17.453Z,3.20
2023-02-25T03:50:50.769Z,2.90
2023-02-25T03:53:17.702Z,3.23
2023-02-25T03:55:44.656Z,2.70
2023-02-25T03:58:11.334Z,3.93
2023-02-25T04:00:40.781Z,4.37
2023-02-25T04:03:07.448Z,3.50
2023-02-25T04:05:35.926Z,3.43
2023-02-25T04:08:02.631Z,3.10
2023-02-25T04:10:29.373Z,2.93
2023-02-25T04:12:56.031Z,3.20
2023-02-25T04:15:22.924Z,3.30
2023-02-25T04:17:49.606Z,3.17
2023-02-25T04:20:17.232Z,3.30
2023-02-25T04:22:43.953Z,3.27
2023-02-25T04:25:10.797Z,3.77
2023-02-25T04:27:37.640Z,2.90
2023-02-25T04:30:05.673Z,3.27
2023-02-25T04:32:32.429Z,3.00
2023-02-25T04:35:03.171Z,2.93
2023-02-25T04:37:30.612Z,3.43
2023-02-25T04:39:57.551Z,2.90
2023-02-25T04:42:24.265Z,2.90
2023-02-25T04:44:50.941Z,2.80
2023-02-25T04:47:19.010Z,3.17
2023-02-25T04:49:45.951Z,2.87
2023-02-25T04:52:16.310Z,3.10
2023-02-25T04:54:43.121Z,2.90
2023-02-25T04:57:11.638Z,3.00
2023-02-25T04:59:38.641Z,3.43
2023-02-25T05:02:06.184Z,3.30
2023-02-25T05:04:33.527Z,2.87
2023-02-25T05:07:00.907Z,2.60
2023-02-25T05:09:27.635Z,2.67
2023-02-25T05:11:54.281Z,2.90
2023-02-25T05:14:20.947Z,2.80
2023-02-25T05:16:47.760Z,3.40
2023-02-25T05:19:21.314Z,3.10
2023-02-25T05:21:51.955Z,2.40
2023-02-25T05:24:19.499Z,2.83
2023-02-25T05:26:46.281Z,3.17
2023-02-25T05:29:13.146Z,3.70
2023-02-25T05:31:40.586Z,2.80
2023-02-25T05:34:07.345Z,2.70
2023-02-25T05:36:34.220Z,3.00
2023-02-25T05:39:02.802Z,3.27
2023-02-25T05:41:30.564Z,3.03
2023-02-25T05:43:58.124Z,2.90
2023-02-25T05:46:26.756Z,3.40
2023-02-25T05:48:54.253Z,3.07
2023-02-25T05:51:23.403Z,3.23
2023-02-25T05:53:51.702Z,3.50
2023-02-25T05:56:22.314Z,3.10
2023-02-25T05:58:49.447Z,2.73
2023-02-25T06:01:20.052Z,3.27
2023-02-25T06:03:48.575Z,2.63
2023-02-25T06:06:17.881Z,2.90
2023-02-25T06:08:44.873Z,3.10
2023-02-25T06:11:15.983Z,3.13
2023-02-25T06:13:42.689Z,2.80
2023-02-25T06:16:09.493Z,2.80
2023-02-25T06:18:39.722Z,3.03
2023-02-25T06:21:08.076Z,3.00
2023-02-25T06:23:36.953Z,2.97
2023-02-25T06:26:05.114Z,2.70
2023-02-25T06:28:31.977Z,3.20
2023-02-25T06:30:58.700Z,3.00
2023-02-25T06:33:25.448Z,3.20
2023-02-25T06:35:53.363Z,2.70
2023-02-25T06:38:20.612Z,3.33
2023-02-25T06:40:48.214Z,3.50
2023-02-25T06:43:15.571Z,2.80
2023-02-25T06:45:42.835Z,2.87
2023-02-25T06:48:09.794Z,3.10
2023-02-25T06:50:39.647Z,3.63
2023-02-25T06:53:07.428Z,2.93
2023-02-25T06:55:34.254Z,2.97
2023-02-25T06:58:00.895Z,3.70
2023-02-25T07:00:27.697Z,3.30
2023-02-25T07:02:54.372Z,3.00
2023-02-25T07:05:21.047Z,3.00
2023-02-25T07:07:47.718Z,3.43
2023-02-25T07:10:14.473Z,3.20
2023-02-25T07:12:41.137Z,3.57
2023-02-25T07:15:08.690Z,2.93
2023-02-25T07:17:35.342Z,3.37
2023-02-25T07:20:02.009Z,2.97
2023-02-25T07:22:28.745Z,2.90
2023-02-25T07:24:55.494Z,3.27
2023-02-25T07:27:22.524Z,2.70
2023-02-25T07:29:49.231Z,2.90
2023-02-25T07:32:16.244Z,3.57
2023-02-25T07:34:43.171Z,3.50
2023-02-25T07:37:10.079Z,3.33
2023-02-25T07:39:36.845Z,3.57
2023-02-25T07:42:03.684Z,3.37
2023-02-25T07:44:30.355Z,3.43
2023-02-25T07:46:57.022Z,3.27
2023-02-25T07:49:23.711Z,3.30
2023-02-25T07:51:50.843Z,4.07
2023-02-25T07:54:21.098Z,3.13
2023-02-25T07:56:50.796Z,3.30
2023-02-25T07:59:18.460Z,2.87
2023-02-25T08:01:45.473Z,3.60
2023-02-25T08:04:12.380Z,3.33
2023-02-25T08:06:41.113Z,3.60
2023-02-25T08:09:12.172Z,3.30
2023-02-25T08:11:39.820Z,3.40
2023-02-25T08:14:06.878Z,3.20
2023-02-25T08:16:34.269Z,3.13
2023-02-25T08:19:01.224Z,3.47
2023-02-25T08:21:27.896Z,3.50
2023-02-25T08:23:55.029Z,3.33
2023-02-25T08:26:22.902Z,3.90
2023-02-25T08:28:50.320Z,3.70
2023-02-25T08:31:17.590Z,3.97
2023-02-25T08:33:52.525Z,3.50
2023-02-25T08:36:22.704Z,3.37
2023-02-25T08:38:50.526Z,3.10
2023-02-25T08:41:18.835Z,3.70
2023-02-25T08:43:50.050Z,3.63
2023-02-25T08:46:17.181Z,4.10
2023-02-25T08:48:45.108Z,3.00
2023-02-25T08:51:11.834Z,3.67
2023-02-25T08:53:40.588Z,3.43
2023-02-25T08:56:09.132Z,3.33
2023-02-25T08:58:36.317Z,3.57
2023-02-25T09:01:08.883Z,3.27
2023-02-25T09:03:35.747Z,3.73
2023-02-25T09:06:02.490Z,3.57
2023-02-25T09:08:31.406Z,3.63
2023-02-25T09:10:58.122Z,3.27
2023-02-25T09:13:24.799Z,3.50
2023-02-25T09:15:58.597Z,3.63
2023-02-25T09:18:25.883Z,3.00
2023-02-25T09:20:53.174Z,3.20
2023-02-25T09:23:20.526Z,3.60
2023-02-25T09:25:47.485Z,3.77
2023-02-25T09:28:14.576Z,4.07
2023-02-25T09:30:44.421Z,4.00
2023-02-25T09:33:11.651Z,4.17
2023-02-25T09:35:40.742Z,4.83
2023-02-25T09:38:07.482Z,4.27
2023-02-25T09:40:34.319Z,4.73
2023-02-25T09:43:22.764Z,4.73
2023-02-25T09:45:51.226Z,4.70
2023-02-25T09:48:25.961Z,6.60
2023-02-25T09:51:03.960Z,5.37
2023-02-25T09:53:56.663Z,6.53
2023-02-25T09:56:26.596Z,6.07
2023-02-25T09:59:02.393Z,5.97
2023-02-25T10:01:39.219Z,5.70
2023-02-25T10:04:20.842Z,6.43
2023-02-25T10:06:50.174Z,6.37
2023-02-25T10:09:39.675Z,6.83
2023-02-25T10:12:35.804Z,7.47
2023-02-25T10:15:20.448Z,7.07
2023-02-25T10:18:04.927Z,6.13
2023-02-25T10:20:43.614Z,6.37
2023-02-25T10:23:25.293Z,6.83
2023-02-25T10:26:17.914Z,6.70
2023-02-25T10:28:49.231Z,6.50
2023-02-25T10:31:19.939Z,5.80
2023-02-25T10:33:49.743Z,6.47
2023-02-25T10:36:19.681Z,6.83
2023-02-25T10:38:52.088Z,6.87
2023-02-25T10:41:22.642Z,6.33
2023-02-25T10:43:51.203Z,6.57
2023-02-25T10:46:23.415Z,6.83
2023-02-25T10:49:01.800Z,6.00
2023-02-25T10:51:29.708Z,7.03
2023-02-25T10:54:01.156Z,7.20
2023-02-25T10:56:39.845Z,8.20
2023-02-25T10:59:25.263Z,7.20
2023-02-25T11:01:53.289Z,6.77
2023-02-25T11:04:25.005Z,6.67
2023-02-25T11:06:51.719Z,3.07
2023-02-25T11:09:21.081Z,2.50
2023-02-25T11:11:53.590Z,2.30
2023-02-25T11:14:28.189Z,1.80
2023-02-25T11:17:02.604Z,2.20
2023-02-25T11:19:32.137Z,3.13
2023-02-25T11:22:06.114Z,2.70
2023-02-25T11:24:38.721Z,3.33
2023-02-25T11:27:07.721Z,2.70
2023-02-25T11:29:41.350Z,2.57
2023-02-25T11:32:21.570Z,2.83
2023-02-25T11:34:56.024Z,2.60
2023-02-25T11:37:49.801Z,2.60
2023-02-25T11:40:25.143Z,2.57
2023-02-25T11:43:06.927Z,2.40
2023-02-25T11:45:39.235Z,2.57
2023-02-25T11:48:18.061Z,2.23
2023-02-25T11:50:56.061Z,2.40
2023-02-25T11:53:45.233Z,2.00
2023-02-25T11:56:48.505Z,2.47
2023-02-25T11:59:29.189Z,2.30
2023-02-25T12:02:31.264Z,2.00
2023-02-25T12:04:58.339Z,2.20
2023-02-25T12:07:55.450Z,2.20
2023-02-25T12:10:42.089Z,2.63
2023-02-25T12:13:30.494Z,2.80
2023-02-25T12:16:21.302Z,2.30
2023-02-25T12:19:07.703Z,2.70
2023-02-25T12:21:59.150Z,2.57
2023-02-25T12:24:28.810Z,4.10
2023-02-25T12:27:01.353Z,3.30
2023-02-25T12:29:28.451Z,3.53
2023-02-25T12:32:22.917Z,3.83
2023-02-25T12:35:15.403Z,3.57
2023-02-25T12:37:42.727Z,2.80
2023-02-25T12:40:34.300Z,2.70
2023-02-25T12:43:01.409Z,2.47
2023-02-25T12:45:57.740Z,3.20
2023-02-25T12:48:44.537Z,3.17
2023-02-25T12:51:32.309Z,2.57
2023-02-25T12:54:25.161Z,2.63
2023-02-25T12:57:19.782Z,2.80
2023-02-25T13:00:09.380Z,4.00
2023-02-25T13:02:44.843Z,3.10
2023-02-25T13:05:52.253Z,2.63
2023-02-25T13:08:43.593Z,2.13
2023-02-25T13:11:27.612Z,2.73
2023-02-25T13:14:12.106Z,3.20
2023-02-25T13:16:39.186Z,2.77
2023-02-25T13:19:36.869Z,2.13
2023-02-25T13:22:42.936Z,2.30
2023-02-25T13:25:10.670Z,2.30
2023-02-25T13:28:15.289Z,2.77
2023-02-25T13:30:53.813Z,4.93
2023-02-25T13:33:46.090Z,5.40
2023-02-25T13:36:13.137Z,5.60
2023-02-25T13:38:40.212Z,3.90
2023-02-25T13:41:23.517Z,3.73
2023-02-25T13:44:27.574Z,2.47
2023-02-25T13:47:10.850Z,4.47
2023-02-25T13:49:55.781Z,5.13
2023-02-25T13:52:25.387Z,4.40
2023-02-25T13:55:10.033Z,4.90
2023-02-25T13:57:50.354Z,3.10
2023-02-25T14:00:30.648Z,3.40
2023-02-25T14:03:29.001Z,3.30
2023-02-25T14:06:35.709Z,5.83
2023-02-25T14:09:42.889Z,5.47
2023-02-25T14:12:41.173Z,3.70
2023-02-25T14:15:44.867Z,3.63
2023-02-25T14:18:12.167Z,4.37
2023-02-25T14:20:53.945Z,3.40
2023-02-25T14:23:50.889Z,3.10
2023-02-25T14:26:26.715Z,2.47
2023-02-25T14:29:20.471Z,3.10
2023-02-25T14:32:25.111Z,2.90
2023-02-25T14:34:56.161Z,2.70
2023-02-25T14:37:47.762Z,2.10
2023-02-25T14:41:09.379Z,3.53
2023-02-25T14:43:37.675Z,3.40
2023-02-25T14:46:07.189Z,3.00
2023-02-25T14:48:58.908Z,3.50
2023-02-25T14:51:31.538Z,4.97
2023-02-25T14:54:11.013Z,4.17
2023-02-25T14:56:49.366Z,3.43
2023-02-25T14:59:37.117Z,3.50
2023-02-25T15:02:14.196Z,2.83
2023-02-25T15:05:08.403Z,2.93
2023-02-25T15:07:52.865Z,3.63
2023-02-25T15:10:32.437Z,2.40
2023-02-25T15:13:17.904Z,1.80
2023-02-25T15:16:20.850Z,2.60
2023-02-25T15:18:57.818Z,5.67
2023-02-25T15:21:37.606Z,5.03
2023-02-25T15:24:10.402Z,5.60
2023-02-25T15:26:48.547Z,4.10
2023-02-25T15:29:27.133Z,2.33
2023-02-25T15:32:09.194Z,2.20
2023-02-25T15:34:36.854Z,4.53
2023-02-25T15:37:22.760Z,4.70
2023-02-25T15:40:02.037Z,5.40
2023-02-25T15:42:53.918Z,2.60
2023-02-25T15:45:27.343Z,4.23
2023-02-25T15:48:17.548Z,3.03
2023-02-25T15:50:47.628Z,4.50
2023-02-25T15:53:21.071Z,4.80
2023-02-25T15:55:54.747Z,4.20
2023-02-25T15:58:24.424Z,4.07
2023-02-25T16:01:00.887Z,4.30
2023-02-25T16:03:36.767Z,4.20
2023-02-25T16:06:24.583Z,3.13
2023-02-25T16:09:00.253Z,6.07
2023-02-25T16:11:30.009Z,4.00
2023-02-25T16:13:58.170Z,4.93
2023-02-25T16:16:25.665Z,4.13
2023-02-25T16:18:55.512Z,4.40
2023-02-25T16:21:26.370Z,4.73
2023-02-25T16:23:54.487Z,4.97
2023-02-25T16:26:45.635Z,3.23
2023-02-25T16:29:15.362Z,4.53
2023-02-25T16:32:21.562Z,2.13
2023-02-25T16:35:09.825Z,1.93
2023-02-25T16:37:57.162Z,2.27
2023-02-25T16:40:50.156Z,2.20
2023-02-25T16:43:28.408Z,3.00
2023-02-25T16:46:06.703Z,6.57
2023-02-25T16:48:37.616Z,10.60
2023-02-25T16:51:10.524Z,5.00
2023-02-25T16:53:44.109Z,4.40
2023-02-25T16:56:20.011Z,3.30
2023-02-25T16:59:06.365Z,3.90
2023-02-25T17:01:35.446Z,2.90
2023-02-25T17:04:14.062Z,4.63
2023-02-25T17:06:41.226Z,5.00
2023-02-25T17:09:08.465Z,3.07
2023-02-25T17:11:35.284Z,2.77
2023-02-25T17:14:04.477Z,4.60
2023-02-25T17:16:36.543Z,2.30
2023-02-25T17:19:07.167Z,2.40
2023-02-25T17:21:44.262Z,2.20
2023-02-25T17:24:17.222Z,2.00
2023-02-25T17:26:47.272Z,2.27
2023-02-25T17:29:16.414Z,2.10
2023-02-25T17:31:49.258Z,2.20
2023-02-25T17:34:21.456Z,2.50
2023-02-25T17:36:49.037Z,3.43
2023-02-25T17:39:19.980Z,6.40
2023-02-25T17:41:47.923Z,5.83
2023-02-25T17:44:36.469Z,4.87
2023-02-25T17:47:05.365Z,4.83
2023-02-25T17:49:34.456Z,7.77
2023-02-25T17:52:07.948Z,12.23
2023-02-25T17:54:37.367Z,16.73
2023-02-25T17:57:14.065Z,14.17
2023-02-25T17:59:43.650Z,15.23
2023-02-25T18:02:38.601Z,15.50
2023-02-25T18:05:08.392Z,14.90
2023-02-25T18:07:35.135Z,13.47
2023-02-25T18:10:02.208Z,12.20
2023-02-25T18:12:35.432Z,11.80
2023-02-25T18:15:05.352Z,12.60
2023-02-25T18:17:36.452Z,15.73
2023-02-25T18:20:08.567Z,15.00
2023-02-25T18:22:47.514Z,13.03
2023-02-25T18:25:32.448Z,12.80
2023-02-25T18:27:59.161Z,12.30
2023-02-25T18:30:28.135Z,10.23
2023-02-25T18:32:57.330Z,13.33
2023-02-25T18:35:25.394Z,15.33
2023-02-25T18:37:54.181Z,15.23
2023-02-25T18:40:30.907Z,13.27
2023-02-25T18:42:59.096Z,9.57
2023-02-25T18:45:28.215Z,9.00
2023-02-25T18:47:56.908Z,9.47
2023-02-25T18:50:24.704Z,10.30
2023-02-25T18:52:51.527Z,10.87
2023-02-25T18:55:29.586Z,10.00
2023-02-25T18:57:56.495Z,11.33
2023-02-25T19:00:25.196Z,8.90
2023-02-25T19:02:55.133Z,8.73
2023-02-25T19:05:23.366Z,8.83
2023-02-25T19:07:50.311Z,9.37
2023-02-25T19:10:19.850Z,9.97
2023-02-25T19:12:49.572Z,8.60
2023-02-25T19:15:19.338Z,8.37
2023-02-25T19:17:46.716Z,5.77
2023-02-25T19:20:14.917Z,9.27
2023-02-25T19:22:46.542Z,12.83
2023-02-25T19:25:22.150Z,15.13
2023-02-25T19:27:49.926Z,15.33
2023-02-25T19:30:18.177Z,13.93
2023-02-25T19:32:45.253Z,10.17
2023-02-25T19:35:12.579Z,10.07
2023-02-25T19:37:40.846Z,11.13
2023-02-25T19:40:11.559Z,11.87
2023-02-25T19:42:39.455Z,15.03
2023-02-25T19:45:08.817Z,13.17
2023-02-25T19:47:35.825Z,11.20
2023-02-25T19:50:03.808Z,10.63
2023-02-25T19:52:31.521Z,12.97
2023-02-25T19:54:58.179Z,12.00
2023-02-25T19:57:24.890Z,12.60
2023-02-25T19:59:51.588Z,14.27
2023-02-25T20:02:18.336Z,10.83
2023-02-25T20:04:45.000Z,10.07
2023-02-25T20:07:11.881Z,11.67
2023-02-25T20:09:38.712Z,14.77
2023-02-25T20:12:05.915Z,18.03
2023-02-25T20:14:33.202Z,16.63
2023-02-25T20:17:01.066Z,21.27
2023-02-25T20:19:32.849Z,19.80
2023-02-25T20:22:01.405Z,18.07
2023-02-25T20:24:29.234Z,15.60
2023-02-25T20:26:56.519Z,14.53
2023-02-25T20:29:23.317Z,14.87
2023-02-25T20:31:50.154Z,15.23
2023-02-25T20:34:19.990Z,11.17
2023-02-25T20:37:06.998Z,11.20
2023-02-25T20:39:39.400Z,13.03
2023-02-25T20:42:09.700Z,14.37
2023-02-25T20:44:36.549Z,15.60
2023-02-25T20:47:03.592Z,16.37
2023-02-25T20:49:31.012Z,12.40
2023-02-25T20:51:58.291Z,12.03
2023-02-25T20:54:25.056Z,11.53
2023-02-25T20:56:52.044Z,11.90
2023-02-25T20:59:18.995Z,10.33
2023-02-25T21:01:45.761Z,7.80
2023-02-25T21:04:12.547Z,5.63
2023-02-25T21:06:39.365Z,6.10
2023-02-25T21:09:07.185Z,4.93
2023-02-25T21:11:34.319Z,4.90
2023-02-25T21:14:01.168Z,3.90
2023-02-25T21:16:28.176Z,3.47
2023-02-25T21:18:57.683Z,4.00
2023-02-25T21:21:26.732Z,3.67
2023-02-25T21:23:53.686Z,3.20
2023-02-25T21:26:20.505Z,3.77
2023-02-25T21:28:47.287Z,4.73
2023-02-25T21:31:15.792Z,3.47
2023-02-25T21:33:42.862Z,3.77
2023-02-25T21:36:11.140Z,6.03
2023-02-25T21:38:38.389Z,5.10
2023-02-25T21:41:08.053Z,3.67
2023-02-25T21:43:34.997Z,3.53
2023-02-25T21:46:03.411Z,3.43
2023-02-25T21:48:31.468Z,3.10
2023-02-25T21:50:59.179Z,2.97
2023-02-25T21:53:27.514Z,3.13
2023-02-25T21:56:06.588Z,2.90
2023-02-25T21:58:33.363Z,2.87
2023-02-25T22:01:10.670Z,3.07
2023-02-25T22:03:37.376Z,3.83
2023-02-25T22:06:04.325Z,3.83
2023-02-25T22:08:31.105Z,3.30
2023-02-25T22:10:57.855Z,3.60
2023-02-25T22:13:25.832Z,3.33
2023-02-25T22:15:52.567Z,4.17
2023-02-25T22:18:19.331Z,4.40
2023-02-25T22:20:45.991Z,5.40
2023-02-25T22:23:12.650Z,8.60
2023-02-25T22:25:39.351Z,6.47
2023-02-25T22:28:05.987Z,5.27
2023-02-25T22:30:32.698Z,5.20
2023-02-25T22:32:59.697Z,5.67
2023-02-25T22:35:26.453Z,5.33
2023-02-25T22:37:53.149Z,5.33
2023-02-25T22:40:19.836Z,3.90
2023-02-25T22:42:46.515Z,3.43
2023-02-25T22:45:13.248Z,3.63
2023-02-25T22:47:40.604Z,3.60
2023-02-25T22:50:07.764Z,6.13
2023-02-25T22:52:34.466Z,5.13
2023-02-25T22:55:01.153Z,5.77
2023-02-25T22:57:27.862Z,6.87
2023-02-25T22:59:54.512Z,5.67
2023-02-25T23:02:21.185Z,5.63
2023-02-25T23:04:47.858Z,5.40
2023-02-25T23:07:14.557Z,7.17
2023-02-25T23:09:41.298Z,6.33
2023-02-25T23:12:07.942Z,5.30
2023-02-25T23:14:35.824Z,5.53
2023-02-25T23:17:02.709Z,5.87
2023-02-25T23:19:29.401Z,7.70
2023-02-25T23:21:56.214Z,6.60
2023-02-25T23:24:23.400Z,7.97
2023-02-25T23:26:53.555Z,8.10
2023-02-25T23:29:20.545Z,7.70
2023-02-25T23:31:49.196Z,6.47
2023-02-25T23:34:25.812Z,8.30
2023-02-25T23:36:55.955Z,7.00
2023-02-25T23:39:23.297Z,6.77
2023-02-25T23:41:49.983Z,6.77
2023-02-25T23:44:16.763Z,6.67
2023-02-25T23:46:44.008Z,6.70
2023-02-25T23:49:15.181Z,6.73
2023-02-25T23:51:43.660Z,5.57
2023-02-25T23:54:13.760Z,5.87
2023-02-25T23:56:40.504Z,4.33
2023-02-25T23:59:08.012Z,3.80
